Eira — OJJP — position and weather

sailwx.info

Track history (hours):
 
Tides and Currents Weather Stations Pressure Air Temp Water Temp Dewpoint Dewpoint Depression Visibility Wind Speed Wind Dir Waves Ship Positions

Eira

Last reported at 2016-Dec-03 11:33 UTC. Time now 2016-Dec-03 11:40 UTC.
Position N 60°08' E 026°30'.

Length 157 m; draft 8.4 m.

Type: Cargo ship. MMSI: 230935000.

Date/timePositionNaut miles runAvg speedWind from/ knotsBaromVisibWave heightAir tempDewpointWater temp
2016-Dec-03 11:33N 60°08' E 026°30'0 0.0
2016-Dec-03 10:34N 60°08' E 026°30'0 0.0
2016-Dec-03 09:33N 60°08' E 026°30'0 0.0
2016-Dec-03 08:34N 60°08' E 026°30'0 0.0
2016-Dec-03 07:33N 60°08' E 026°30'0 0.0
2016-Dec-03 06:34N 60°08' E 026°30'0 0.0
2016-Dec-03 05:33N 60°08' E 026°30'0 0.0
2016-Dec-03 04:33N 60°08' E 026°30'0 0.1
2016-Dec-03 03:34N 60°08' E 026°30'2 2.4
2016-Dec-03 02:34N 60°07' E 026°34'1110.7
2016-Dec-03 01:34N 60°01' E 026°52'13 9.8
2016-Dec-03 00:16N 60°04' E 027°17'1111.1
2016-Dec-02 23:16N 60°09' E 027°35'710.3
2016-Dec-02 22:33N 60°11' E 027°50'1110.8
2016-Dec-02 21:33N 60°09' E 028°11'1110.6
2016-Dec-02 20:34N 60°04' E 028°29'1110.7
2016-Dec-02 19:33N 60°03' E 028°51'1110.8
2016-Dec-02 18:34N 60°02' E 029°12'1310.4
2016-Dec-02 17:18N 60°00' E 029°38'810.1
2016-Dec-02 16:33N 59°57' E 029°52'10 9.5
2016-Dec-02 15:33N 59°53' E 030°10'1 1.1
2016-Dec-02 14:31N 59°53' E 030°11'0 0.0
2016-Dec-02 13:31N 59°53' E 030°11'0 0.0
2016-Dec-02 12:31N 59°53' E 030°11'0 0.0
2016-Dec-02 11:31N 59°53' E 030°11'0 0.0
2016-Dec-02 10:31N 59°53' E 030°11'0 0.0
2016-Dec-02 09:31N 59°53' E 030°11'0 0.0
2016-Dec-02 08:31N 59°53' E 030°11'0 0.0
2016-Dec-02 07:31N 59°53' E 030°11'0 0.0
2016-Dec-02 06:31N 59°53' E 030°11'0 0.0
2016-Dec-02 05:31N 59°53' E 030°11'0 0.0
2016-Dec-02 04:31N 59°53' E 030°11'0 0.0
2016-Dec-02 03:31N 59°53' E 030°11'0 0.0
2016-Dec-02 02:31N 59°53' E 030°11'0 0.0
2016-Dec-02 01:31N 59°53' E 030°11'0 0.0
2016-Dec-02 00:31N 59°53' E 030°11'0 0.0
2016-Dec-01 23:31N 59°53' E 030°11'0 0.0
2016-Dec-01 22:31N 59°53' E 030°11'0 0.0
2016-Dec-01 21:31N 59°53' E 030°11'0 0.0
2016-Dec-01 20:31N 59°53' E 030°11'0 0.0
2016-Dec-01 19:31N 59°53' E 030°11'0 0.0
2016-Dec-01 18:31N 59°53' E 030°11'0 0.0
2016-Dec-01 17:31N 59°53' E 030°11'0 0.0
2016-Dec-01 16:31N 59°53' E 030°11'0 0.0
2016-Dec-01 15:34N 59°53' E 030°11'5 5.1
2016-Dec-01 14:33N 59°55' E 030°02'10 9.7
2016-Dec-01 13:33N 59°59' E 029°44'10 9.5
2016-Dec-01 12:29N 60°01' E 029°25'1 0.1
2016-Dec-01 02:17N 60°02' E 029°25'0 0.0
2016-Dec-01 01:31N 60°02' E 029°25'0 0.0
2016-Dec-01 00:29N 60°02' E 029°25'0 0.0
2016-Nov-30 23:31N 60°02' E 029°25'3 2.4
2016-Nov-30 22:23N 60°02' E 029°19'1012.3
2016-Nov-30 21:33N 60°02' E 028°59'1212.5
2016-Nov-30 20:33N 60°03' E 028°34'1212.1
2016-Nov-30 19:32N 60°08' E 028°12'1212.4
2016-Nov-30 18:34N 60°11' E 027°48'1212.1
2016-Nov-30 17:33N 60°05' E 027°27'1412.2
2016-Nov-30 16:22N 59°58' E 027°01'1012.4
2016-Nov-30 15:33N 59°60' E 026°41'1212.4
2016-Nov-30 14:33N 59°57' E 026°17'42 1.2
2016-Nov-29 03:31N 60°11' E 024°58'0 0.0
2016-Nov-29 02:31N 60°11' E 024°58'0 0.0
2016-Nov-29 01:31N 60°11' E 024°58'0 0.0
2016-Nov-29 00:31N 60°11' E 024°58'0 0.0
2016-Nov-28 23:31N 60°11' E 024°58'0 0.0
2016-Nov-28 22:28N 60°11' E 024°58'0 0.0
2016-Nov-28 21:31N 60°11' E 024°58'0 0.0
2016-Nov-28 20:31N 60°11' E 024°58'0 0.0
2016-Nov-28 19:31N 60°11' E 024°58'0 0.0
2016-Nov-28 18:31N 60°11' E 024°58'0 0.0
2016-Nov-28 17:31N 60°11' E 024°58'0 0.0
2016-Nov-28 16:31N 60°11' E 024°58'0 0.0
2016-Nov-28 15:31N 60°11' E 024°58'0 0.0
2016-Nov-28 14:31N 60°11' E 024°58'0 0.0
2016-Nov-28 13:31N 60°11' E 024°58'0 0.0
2016-Nov-28 12:31N 60°11' E 024°58'0 0.0
2016-Nov-28 11:31N 60°11' E 024°58'0 0.0
2016-Nov-28 10:31N 60°11' E 024°58'0 0.0
2016-Nov-28 09:31N 60°11' E 024°58'46 2.3
2016-Nov-27 13:19N 60°01' E 026°29'911.9
2016-Nov-27 12:33N 60°01' E 026°47'1411.4
2016-Nov-27 11:18N 60°03' E 027°15'1212.4
2016-Nov-27 10:21N 60°09' E 027°35'910.9
2016-Nov-27 09:34N 60°12' E 027°51'1111.3
2016-Nov-27 08:33N 60°08' E 028°13'1110.8
2016-Nov-27 07:33N 60°03' E 028°32'9 8.8
2016-Nov-27 06:33N 59°54' E 028°33'9 8.6
2016-Nov-27 05:33N 59°46' E 028°25'5 5.3
2016-Nov-27 04:33N 59°41' E 028°25'0 0.0
2016-Nov-27 03:27N 59°41' E 028°25'0 0.0
2016-Nov-27 02:30N 59°41' E 028°25'0 0.0
2016-Nov-27 01:30N 59°41' E 028°25'0 0.0
2016-Nov-27 00:30N 59°41' E 028°25'0 0.0
2016-Nov-26 23:33N 59°41' E 028°25'0 0.0
2016-Nov-26 22:33N 59°41' E 028°25'0 0.0
2016-Nov-26 21:33N 59°41' E 028°25'0 0.0
2016-Nov-26 20:33N 59°41' E 028°25'0 0.0
2016-Nov-26 19:33N 59°41' E 028°25'0 0.0
2016-Nov-26 18:24N 59°41' E 028°25'0 0.0
2016-Nov-26 17:33N 59°41' E 028°25'0 0.0
2016-Nov-26 16:24N 59°41' E 028°25'0 0.0
2016-Nov-26 15:27N 59°41' E 028°25'0 0.0
2016-Nov-26 14:12N 59°41' E 028°25'0 0.0
2016-Nov-26 13:28N 59°41' E 028°25'8 2.6
2016-Nov-26 10:26N 59°46' E 028°14'0 0.0
2016-Nov-26 09:29N 59°46' E 028°14'0 0.0
2016-Nov-26 08:32N 59°46' E 028°14'0 0.0
2016-Nov-26 07:32N 59°46' E 028°14'0 0.0
2016-Nov-26 06:32N 59°46' E 028°13'0 0.0
2016-Nov-26 05:32N 59°46' E 028°13'0 0.0
2016-Nov-26 04:32N 59°46' E 028°13'0 0.0
2016-Nov-26 03:32N 59°46' E 028°13'0 0.0
2016-Nov-26 02:32N 59°46' E 028°13'0 0.0
2016-Nov-26 01:23N 59°46' E 028°13'0 0.0
2016-Nov-26 00:26N 59°46' E 028°14'0 0.0
2016-Nov-25 23:26N 59°46' E 028°14'0 0.0
2016-Nov-25 22:26N 59°46' E 028°14'0 0.1
2016-Nov-25 21:26N 59°46' E 028°14'7 8.2
2016-Nov-25 20:33N 59°53' E 028°10'1212.3
2016-Nov-25 19:33N 60°05' E 028°06'1111.3
2016-Nov-25 18:33N 60°11' E 027°46'1312.6
2016-Nov-25 17:33N 60°04' E 027°24'1312.0
2016-Nov-25 16:26N 59°58' E 026°60'1112.0
2016-Nov-25 15:34N 59°60' E 026°39'1312.3
2016-Nov-25 14:31N 59°56' E 026°14'4 0.1
2016-Nov-24 00:27N 59°60' E 026°21'1011.3
2016-Nov-23 23:33N 60°01' E 026°41'1611.0
2016-Nov-23 22:06N 60°02' E 027°13'711.2
2016-Nov-23 21:31N 60°05' E 027°24'1111.2
2016-Nov-23 20:33N 60°11' E 027°42'  
Track history (hours):
 
Tides and Currents Weather Stations Pressure Air Temp Water Temp Dewpoint Dewpoint Depression Visibility Wind Speed Wind Dir Waves Ship Positions

Eira

Last reported at 2016-Dec-03 11:33 UTC. Time now 2016-Dec-03 11:40 UTC.
Position N 60°08' E 026°30'.

Length 157 m; draft 8.4 m.

Type: Cargo ship. MMSI: 230935000.

Date/timePositionNaut miles runAvg speedWind from/ knotsBaromVisibWave heightAir tempDewpointWater temp
2016-Dec-03 11:33N 60°08' E 026°30'0 0.0
2016-Dec-03 10:34N 60°08' E 026°30'0 0.0
2016-Dec-03 09:33N 60°08' E 026°30'0 0.0
2016-Dec-03 08:34N 60°08' E 026°30'0 0.0
2016-Dec-03 07:33N 60°08' E 026°30'0 0.0
2016-Dec-03 06:34N 60°08' E 026°30'0 0.0
2016-Dec-03 05:33N 60°08' E 026°30'0 0.0
2016-Dec-03 04:33N 60°08' E 026°30'0 0.1
2016-Dec-03 03:34N 60°08' E 026°30'2 2.4
2016-Dec-03 02:34N 60°07' E 026°34'1110.7
2016-Dec-03 01:34N 60°01' E 026°52'13 9.8
2016-Dec-03 00:16N 60°04' E 027°17'1111.1
2016-Dec-02 23:16N 60°09' E 027°35'710.3
2016-Dec-02 22:33N 60°11' E 027°50'1110.8
2016-Dec-02 21:33N 60°09' E 028°11'1110.6
2016-Dec-02 20:34N 60°04' E 028°29'1110.7
2016-Dec-02 19:33N 60°03' E 028°51'1110.8
2016-Dec-02 18:34N 60°02' E 029°12'1310.4
2016-Dec-02 17:18N 60°00' E 029°38'810.1
2016-Dec-02 16:33N 59°57' E 029°52'10 9.5
2016-Dec-02 15:33N 59°53' E 030°10'1 1.1
2016-Dec-02 14:31N 59°53' E 030°11'0 0.0
2016-Dec-02 13:31N 59°53' E 030°11'0 0.0
2016-Dec-02 12:31N 59°53' E 030°11'0 0.0
2016-Dec-02 11:31N 59°53' E 030°11'0 0.0
2016-Dec-02 10:31N 59°53' E 030°11'0 0.0
2016-Dec-02 09:31N 59°53' E 030°11'0 0.0
2016-Dec-02 08:31N 59°53' E 030°11'0 0.0
2016-Dec-02 07:31N 59°53' E 030°11'0 0.0
2016-Dec-02 06:31N 59°53' E 030°11'0 0.0
2016-Dec-02 05:31N 59°53' E 030°11'0 0.0
2016-Dec-02 04:31N 59°53' E 030°11'0 0.0
2016-Dec-02 03:31N 59°53' E 030°11'0 0.0
2016-Dec-02 02:31N 59°53' E 030°11'0 0.0
2016-Dec-02 01:31N 59°53' E 030°11'0 0.0
2016-Dec-02 00:31N 59°53' E 030°11'0 0.0
2016-Dec-01 23:31N 59°53' E 030°11'0 0.0
2016-Dec-01 22:31N 59°53' E 030°11'0 0.0
2016-Dec-01 21:31N 59°53' E 030°11'0 0.0
2016-Dec-01 20:31N 59°53' E 030°11'0 0.0
2016-Dec-01 19:31N 59°53' E 030°11'0 0.0
2016-Dec-01 18:31N 59°53' E 030°11'0 0.0
2016-Dec-01 17:31N 59°53' E 030°11'0 0.0
2016-Dec-01 16:31N 59°53' E 030°11'0 0.0
2016-Dec-01 15:34N 59°53' E 030°11'5 5.1
2016-Dec-01 14:33N 59°55' E 030°02'10 9.7
2016-Dec-01 13:33N 59°59' E 029°44'10 9.5
2016-Dec-01 12:29N 60°01' E 029°25'1 0.1
2016-Dec-01 02:17N 60°02' E 029°25'0 0.0
2016-Dec-01 01:31N 60°02' E 029°25'0 0.0
2016-Dec-01 00:29N 60°02' E 029°25'0 0.0
2016-Nov-30 23:31N 60°02' E 029°25'3 2.4
2016-Nov-30 22:23N 60°02' E 029°19'1012.3
2016-Nov-30 21:33N 60°02' E 028°59'1212.5
2016-Nov-30 20:33N 60°03' E 028°34'1212.1
2016-Nov-30 19:32N 60°08' E 028°12'1212.4
2016-Nov-30 18:34N 60°11' E 027°48'1212.1
2016-Nov-30 17:33N 60°05' E 027°27'1412.2
2016-Nov-30 16:22N 59°58' E 027°01'1012.4
2016-Nov-30 15:33N 59°60' E 026°41'1212.4
2016-Nov-30 14:33N 59°57' E 026°17'42 1.2
2016-Nov-29 03:31N 60°11' E 024°58'0 0.0
2016-Nov-29 02:31N 60°11' E 024°58'0 0.0
2016-Nov-29 01:31N 60°11' E 024°58'0 0.0
2016-Nov-29 00:31N 60°11' E 024°58'0 0.0
2016-Nov-28 23:31N 60°11' E 024°58'0 0.0
2016-Nov-28 22:28N 60°11' E 024°58'0 0.0
2016-Nov-28 21:31N 60°11' E 024°58'0 0.0
2016-Nov-28 20:31N 60°11' E 024°58'0 0.0
2016-Nov-28 19:31N 60°11' E 024°58'0 0.0
2016-Nov-28 18:31N 60°11' E 024°58'0 0.0
2016-Nov-28 17:31N 60°11' E 024°58'0 0.0
2016-Nov-28 16:31N 60°11' E 024°58'0 0.0
2016-Nov-28 15:31N 60°11' E 024°58'0 0.0
2016-Nov-28 14:31N 60°11' E 024°58'0 0.0
2016-Nov-28 13:31N 60°11' E 024°58'0 0.0
2016-Nov-28 12:31N 60°11' E 024°58'0 0.0
2016-Nov-28 11:31N 60°11' E 024°58'0 0.0
2016-Nov-28 10:31N 60°11' E 024°58'0 0.0
2016-Nov-28 09:31N 60°11' E 024°58'46 2.3
2016-Nov-27 13:19N 60°01' E 026°29'911.9
2016-Nov-27 12:33N 60°01' E 026°47'1411.4
2016-Nov-27 11:18N 60°03' E 027°15'1212.4
2016-Nov-27 10:21N 60°09' E 027°35'910.9
2016-Nov-27 09:34N 60°12' E 027°51'1111.3
2016-Nov-27 08:33N 60°08' E 028°13'1110.8
2016-Nov-27 07:33N 60°03' E 028°32'9 8.8
2016-Nov-27 06:33N 59°54' E 028°33'9 8.6
2016-Nov-27 05:33N 59°46' E 028°25'5 5.3
2016-Nov-27 04:33N 59°41' E 028°25'0 0.0
2016-Nov-27 03:27N 59°41' E 028°25'0 0.0
2016-Nov-27 02:30N 59°41' E 028°25'0 0.0
2016-Nov-27 01:30N 59°41' E 028°25'0 0.0
2016-Nov-27 00:30N 59°41' E 028°25'0 0.0
2016-Nov-26 23:33N 59°41' E 028°25'0 0.0
2016-Nov-26 22:33N 59°41' E 028°25'0 0.0
2016-Nov-26 21:33N 59°41' E 028°25'0 0.0
2016-Nov-26 20:33N 59°41' E 028°25'0 0.0
2016-Nov-26 19:33N 59°41' E 028°25'0 0.0
2016-Nov-26 18:24N 59°41' E 028°25'0 0.0
2016-Nov-26 17:33N 59°41' E 028°25'0 0.0
2016-Nov-26 16:24N 59°41' E 028°25'0 0.0
2016-Nov-26 15:27N 59°41' E 028°25'0 0.0
2016-Nov-26 14:12N 59°41' E 028°25'0 0.0
2016-Nov-26 13:28N 59°41' E 028°25'8 2.6
2016-Nov-26 10:26N 59°46' E 028°14'0 0.0
2016-Nov-26 09:29N 59°46' E 028°14'0 0.0
2016-Nov-26 08:32N 59°46' E 028°14'0 0.0
2016-Nov-26 07:32N 59°46' E 028°14'0 0.0
2016-Nov-26 06:32N 59°46' E 028°13'0 0.0
2016-Nov-26 05:32N 59°46' E 028°13'0 0.0
2016-Nov-26 04:32N 59°46' E 028°13'0 0.0
2016-Nov-26 03:32N 59°46' E 028°13'0 0.0
2016-Nov-26 02:32N 59°46' E 028°13'0 0.0
2016-Nov-26 01:23N 59°46' E 028°13'0 0.0
2016-Nov-26 00:26N 59°46' E 028°14'0 0.0
2016-Nov-25 23:26N 59°46' E 028°14'0 0.0
2016-Nov-25 22:26N 59°46' E 028°14'0 0.1
2016-Nov-25 21:26N 59°46' E 028°14'7 8.2
2016-Nov-25 20:33N 59°53' E 028°10'1212.3
2016-Nov-25 19:33N 60°05' E 028°06'1111.3
2016-Nov-25 18:33N 60°11' E 027°46'1312.6
2016-Nov-25 17:33N 60°04' E 027°24'1312.0
2016-Nov-25 16:26N 59°58' E 026°60'1112.0
2016-Nov-25 15:34N 59°60' E 026°39'1312.3
2016-Nov-25 14:31N 59°56' E 026°14'4 0.1
2016-Nov-24 00:27N 59°60' E 026°21'1011.3
2016-Nov-23 23:33N 60°01' E 026°41'1611.0
2016-Nov-23 22:06N 60°02' E 027°13'711.2
2016-Nov-23 21:31N 60°05' E 027°24'1111.2
2016-Nov-23 20:33N 60°11' E 027°42'  

Dump ship's entire track history